Aérodrome :
LOGIN :

S'inscrire | Disclaimer

   EN    FR    IT 

 










Légende :    VFR   VFR Marginal   IFR   IFR Intensif   IFR Très Intensif
Visi : 
Plafond : 
>= 8 km
>= 3000ft
5 à 8 km
1000 à 3000 ft
1500m à 5 km
500 à 1000 ft
800 à 1500m
200 à 500 ft
< 800m
< 200 ft
Symboles :   Orages  Brouillard  Fortes neiges  Fortes précipitations  Vent > 20 kt
SIGMETs :   Divers  Orages  Givrage  Turbulence  Onde Orograph.  Cendres Volcan.






- Altitude de l'aérodrome : 157 ft
- Code IATA : SXF


EDDB - Berlin Schönefeld

DERNIER METAR :
  • 301950Z 29004KT 9999 BKN018 02/M00 Q1026 TEMPO BKN012

METARs EXPIRÉS :
  • 301920Z 29006KT 9999 BKN019 02/M00 Q1025 TEMPO BKN012
  • 301850Z 28004KT 9999 SCT016 02/M01 Q1025 TEMPO BKN012
  • 301820Z 30004KT 9999 BKN016 02/M01 Q1025 TEMPO BKN012
  • 301750Z 31004KT 9999 BKN016 02/M01 Q1025 TEMPO BKN012
  • 301720Z 29004KT 270V330 9999 BKN014 02/M01 Q1025 NOSIG
  • 301650Z 31006KT 280V340 9999 BKN012 02/M01 Q1024 NOSIG

TAF TAF EDDB
Valide du 30 à 18h jusqu'au 31 à 18h UTC


301700Z 3018/3118 28004KT 9999 BKN010
BECMG 3018/3020 02006KT FEW035
PROB30
TEMPO 3018/3022 2500 -SHSN BKN009TCU
BECMG 3106/3108 32007KT



MET'MAP, la Météo Aéronautique d'un coup d'oeil ! - Copyright ORBIFLY Décembre 2007 - Disclaimer

ORBIFLY MET'MAP TEAM :

Programmation & Développement : Alexandra Zaïnal
Sur une idée originale de : Baudouin d'Aumeries
Assistance à la programmation : Marc-Olivier Méhu
Soutien technique & logistique : Manuel Goepfert

Contact : metmap@orbifly.com




SOURCES & CREDITS :

   NOAA